createdAt,value
2023-05-17T00:01:11.060Z,89.62
2023-05-17T00:03:56.505Z,89.79
2023-05-17T00:06:42.409Z,90.42
2023-05-17T00:09:27.825Z,90.71
2023-05-17T00:12:13.021Z,90.95
2023-05-17T00:14:58.912Z,91.02
2023-05-17T00:17:44.204Z,91.21
2023-05-17T00:20:29.499Z,90.95
2023-05-17T00:23:14.868Z,91.46
2023-05-17T00:26:00.293Z,91.95
2023-05-17T00:28:45.842Z,92.43
2023-05-17T00:31:31.014Z,92.79
2023-05-17T00:34:16.323Z,93.41
2023-05-17T00:37:01.419Z,93.51
2023-05-17T00:39:46.615Z,93.62
2023-05-17T00:42:31.848Z,94.60
2023-05-17T00:45:17.459Z,95.43
2023-05-17T00:48:02.999Z,97.42
2023-05-17T00:50:48.742Z,99.52
2023-05-17T00:53:34.162Z,100.00
2023-05-17T00:56:19.531Z,100.00
2023-05-17T00:59:06.557Z,100.00
2023-05-17T01:01:52.419Z,100.00
2023-05-17T01:04:38.684Z,100.00
2023-05-17T01:07:23.898Z,100.00
2023-05-17T01:10:09.818Z,100.00
2023-05-17T01:13:02.379Z,100.00
2023-05-17T01:15:57.184Z,100.00
2023-05-17T01:18:52.663Z,100.00
2023-05-17T01:22:02.525Z,100.00
2023-05-17T01:24:50.858Z,100.00
2023-05-17T01:27:39.772Z,100.00
2023-05-17T01:30:25.910Z,100.00
2023-05-17T01:33:12.429Z,100.00
2023-05-17T01:35:58.030Z,100.00
2023-05-17T01:38:43.216Z,100.00
2023-05-17T01:41:40.621Z,100.00
2023-05-17T01:44:37.726Z,100.00
2023-05-17T01:47:31.432Z,100.00
2023-05-17T01:50:19.664Z,100.00
2023-05-17T01:53:11.652Z,100.00
2023-05-17T01:56:10.445Z,100.00
2023-05-17T01:58:57.073Z,100.00
2023-05-17T02:01:42.767Z,100.00
2023-05-17T02:04:30.113Z,100.00
2023-05-17T02:07:15.675Z,100.00
2023-05-17T02:10:00.852Z,100.00
2023-05-17T02:12:46.336Z,100.00
2023-05-17T02:15:32.499Z,100.00
2023-05-17T02:18:17.559Z,100.00
2023-05-17T02:21:03.003Z,100.00
2023-05-17T02:23:48.255Z,100.00
2023-05-17T02:26:33.584Z,100.00
2023-05-17T02:29:18.962Z,100.00
2023-05-17T02:32:04.408Z,100.00
2023-05-17T02:34:49.847Z,100.00
2023-05-17T02:37:34.753Z,100.00
2023-05-17T02:40:20.574Z,100.00
2023-05-17T02:43:05.493Z,100.00
2023-05-17T02:45:50.965Z,100.00
2023-05-17T02:48:35.799Z,100.00
2023-05-17T02:51:21.150Z,100.00
2023-05-17T02:54:06.519Z,100.00
2023-05-17T02:56:52.036Z,100.00
2023-05-17T02:59:37.478Z,100.00
2023-05-17T03:02:22.881Z,100.00
2023-05-17T03:05:08.513Z,100.00
2023-05-17T03:07:53.404Z,100.00
2023-05-17T03:10:38.799Z,100.00
2023-05-17T03:13:24.029Z,100.00
2023-05-17T03:16:09.337Z,100.00
2023-05-17T03:18:54.925Z,100.00
2023-05-17T03:21:40.124Z,100.00
2023-05-17T03:24:25.366Z,100.00
2023-05-17T03:27:10.764Z,100.00
2023-05-17T03:29:56.027Z,100.00
2023-05-17T03:32:41.969Z,100.00
2023-05-17T03:35:27.321Z,100.00
2023-05-17T03:38:12.919Z,100.00
2023-05-17T03:40:58.455Z,100.00
2023-05-17T03:43:43.620Z,100.00
2023-05-17T03:46:29.069Z,100.00
2023-05-17T03:49:14.723Z,100.00
2023-05-17T03:51:59.697Z,100.00
2023-05-17T03:54:46.313Z,100.00
2023-05-17T03:57:33.388Z,100.00
2023-05-17T04:00:18.585Z,100.00
2023-05-17T04:03:03.841Z,100.00
2023-05-17T04:05:49.467Z,100.00
2023-05-17T04:08:35.137Z,100.00
2023-05-17T04:11:20.590Z,100.00
2023-05-17T04:14:06.164Z,100.00
2023-05-17T04:16:51.344Z,100.00
2023-05-17T04:19:36.726Z,100.00
2023-05-17T04:22:22.145Z,100.00
2023-05-17T04:25:07.937Z,100.00
2023-05-17T04:27:53.118Z,100.00
2023-05-17T04:30:43.172Z,100.00
2023-05-17T04:33:28.339Z,100.00
2023-05-17T04:36:13.599Z,100.00
2023-05-17T04:38:58.690Z,100.00
2023-05-17T04:41:43.980Z,100.00
2023-05-17T04:44:29.544Z,100.00
2023-05-17T04:47:14.824Z,100.00
2023-05-17T04:50:00.009Z,100.00
2023-05-17T04:52:48.521Z,100.00
2023-05-17T04:55:33.906Z,100.00
2023-05-17T04:58:19.182Z,100.00
2023-05-17T05:01:05.581Z,100.00
2023-05-17T05:03:50.597Z,100.00
2023-05-17T05:06:35.930Z,100.00
2023-05-17T05:09:21.385Z,100.00
2023-05-17T05:12:07.058Z,100.00
2023-05-17T05:14:52.432Z,100.00
2023-05-17T05:17:37.906Z,100.00
2023-05-17T05:20:24.669Z,100.00
2023-05-17T05:23:11.695Z,100.00
2023-05-17T05:25:57.234Z,100.00
2023-05-17T05:28:42.599Z,100.00
2023-05-17T05:31:28.140Z,100.00
2023-05-17T05:34:13.513Z,100.00
2023-05-17T05:36:58.714Z,100.00
2023-05-17T05:39:44.040Z,100.00
2023-05-17T05:42:29.424Z,100.00
2023-05-17T05:45:14.548Z,100.00
2023-05-17T05:47:59.891Z,100.00
2023-05-17T05:50:45.367Z,100.00
2023-05-17T05:53:30.422Z,100.00
2023-05-17T05:56:15.689Z,100.00
2023-05-17T05:59:01.136Z,100.00
2023-05-17T06:01:46.846Z,100.00
2023-05-17T06:04:43.805Z,100.00
2023-05-17T06:07:29.964Z,100.00
2023-05-17T06:10:14.906Z,100.00
2023-05-17T06:13:00.362Z,100.00
2023-05-17T06:15:45.540Z,100.00
2023-05-17T06:18:30.832Z,100.00
2023-05-17T06:21:16.325Z,100.00
2023-05-17T06:24:02.875Z,100.00
2023-05-17T06:26:50.018Z,98.23
2023-05-17T06:29:35.786Z,96.70
2023-05-17T06:32:20.666Z,94.43
2023-05-17T06:35:06.652Z,93.11
2023-05-17T06:37:52.049Z,91.92
2023-05-17T06:40:37.279Z,90.06
2023-05-17T06:43:23.036Z,86.36
2023-05-17T06:46:08.662Z,85.07
2023-05-17T06:48:54.034Z,85.24
2023-05-17T06:51:39.585Z,83.99
2023-05-17T06:54:25.041Z,84.03
2023-05-17T06:57:10.198Z,84.08
2023-05-17T06:59:55.590Z,84.81
2023-05-17T07:02:41.015Z,85.25
2023-05-17T07:05:26.592Z,85.71
2023-05-17T07:08:11.431Z,86.69
2023-05-17T07:10:57.154Z,86.31
2023-05-17T07:13:42.447Z,86.42
2023-05-17T07:16:27.935Z,85.44
2023-05-17T07:19:13.494Z,83.61
2023-05-17T07:21:58.810Z,81.98
2023-05-17T07:24:44.635Z,81.59
2023-05-17T07:27:30.243Z,81.36
2023-05-17T07:30:15.265Z,81.62
2023-05-17T07:33:00.838Z,82.22
2023-05-17T07:35:46.164Z,82.47
2023-05-17T07:38:31.905Z,82.17
2023-05-17T07:41:17.044Z,80.97
2023-05-17T07:44:02.317Z,77.95
2023-05-17T07:46:49.943Z,75.39
2023-05-17T07:49:34.997Z,71.43
2023-05-17T07:52:20.362Z,69.88
2023-05-17T07:55:05.742Z,69.76
2023-05-17T07:57:51.071Z,69.49
2023-05-17T08:00:36.434Z,69.19
2023-05-17T08:03:21.455Z,69.87
2023-05-17T08:06:07.075Z,71.43
2023-05-17T08:08:52.318Z,69.81
2023-05-17T08:11:37.580Z,69.67
2023-05-17T08:14:23.806Z,65.97
2023-05-17T08:17:09.377Z,62.82
2023-05-17T08:19:54.888Z,62.38
2023-05-17T08:22:40.067Z,63.11
2023-05-17T08:25:25.612Z,62.11
2023-05-17T08:28:10.648Z,62.91
2023-05-17T08:30:55.696Z,62.68
2023-05-17T08:33:41.324Z,63.59
2023-05-17T08:36:26.573Z,63.32
2023-05-17T08:39:11.998Z,61.75
2023-05-17T08:41:57.387Z,62.41
2023-05-17T08:44:42.384Z,60.19
2023-05-17T08:47:28.978Z,57.95
2023-05-17T08:50:13.870Z,56.09
2023-05-17T08:52:59.611Z,53.98
2023-05-17T08:55:46.955Z,52.35
2023-05-17T08:58:47.984Z,54.05
2023-05-17T09:01:42.812Z,54.90
2023-05-17T09:04:29.656Z,56.63
2023-05-17T09:07:17.183Z,55.89
2023-05-17T09:10:02.699Z,57.85
2023-05-17T09:12:48.537Z,57.13
2023-05-17T09:15:33.594Z,55.07
2023-05-17T09:18:19.611Z,55.24
2023-05-17T09:21:05.386Z,54.21
2023-05-17T09:24:05.509Z,54.75
2023-05-17T09:26:52.321Z,56.73
2023-05-17T09:29:39.385Z,56.92
2023-05-17T09:32:24.448Z,54.96
2023-05-17T09:35:10.333Z,54.20
2023-05-17T09:38:10.167Z,51.87
2023-05-17T09:40:55.470Z,50.92
2023-05-17T09:43:40.801Z,53.75
2023-05-17T09:46:26.034Z,54.62
2023-05-17T09:49:11.297Z,53.79
2023-05-17T09:51:56.678Z,54.79
2023-05-17T09:54:41.647Z,54.56
2023-05-17T09:57:29.017Z,53.49
2023-05-17T10:00:15.940Z,53.42
2023-05-17T10:03:03.810Z,54.70
2023-05-17T10:05:51.604Z,56.09
2023-05-17T10:08:38.450Z,56.99
2023-05-17T10:11:30.212Z,57.83
2023-05-17T10:14:18.816Z,54.45
2023-05-17T10:17:04.561Z,53.58
2023-05-17T10:19:50.956Z,51.36
2023-05-17T10:22:37.538Z,51.37
2023-05-17T10:25:23.789Z,52.01
2023-05-17T10:28:10.982Z,53.00
2023-05-17T10:30:58.961Z,53.44
2023-05-17T10:33:47.191Z,54.16
2023-05-17T10:36:33.790Z,54.46
2023-05-17T10:39:21.428Z,53.48
2023-05-17T10:42:14.657Z,54.37
2023-05-17T10:45:01.607Z,55.59
2023-05-17T10:47:46.581Z,54.75
2023-05-17T10:50:32.334Z,51.13
2023-05-17T10:53:17.815Z,50.63
2023-05-17T10:56:03.365Z,50.93
2023-05-17T10:58:48.694Z,53.12
2023-05-17T11:01:53.646Z,53.28
2023-05-17T11:04:50.173Z,52.44
2023-05-17T11:07:35.623Z,52.31
2023-05-17T11:10:21.481Z,51.66
2023-05-17T11:13:25.284Z,50.67
2023-05-17T11:16:10.545Z,51.53
2023-05-17T11:19:06.259Z,52.58
2023-05-17T11:21:51.752Z,53.27
2023-05-17T11:24:42.182Z,52.63
2023-05-17T11:27:35.665Z,53.02
2023-05-17T11:30:34.400Z,53.50
2023-05-17T11:33:32.324Z,53.31
2023-05-17T11:36:20.508Z,53.36
2023-05-17T11:39:13.830Z,52.57
2023-05-17T11:41:58.972Z,51.59
2023-05-17T11:44:44.430Z,51.69
2023-05-17T11:47:30.098Z,51.99
2023-05-17T11:50:15.471Z,53.71
2023-05-17T11:53:00.841Z,54.33
2023-05-17T11:55:51.019Z,52.45
2023-05-17T11:58:36.946Z,52.54
2023-05-17T12:01:22.091Z,49.65
2023-05-17T12:04:07.542Z,50.86
2023-05-17T12:06:56.487Z,52.33
2023-05-17T12:09:44.736Z,50.58
2023-05-17T12:12:30.317Z,50.85
2023-05-17T12:15:19.031Z,48.60
2023-05-17T12:18:04.524Z,48.96
2023-05-17T12:20:53.962Z,48.01
2023-05-17T12:23:41.040Z,49.14
2023-05-17T12:26:26.487Z,47.85
2023-05-17T12:29:12.890Z,48.47
2023-05-17T12:31:59.318Z,48.02
2023-05-17T12:34:45.364Z,48.00
2023-05-17T12:37:30.663Z,48.01
2023-05-17T12:40:15.647Z,48.08
2023-05-17T12:43:02.390Z,47.92
2023-05-17T12:45:47.763Z,47.15
2023-05-17T12:48:38.192Z,47.92
2023-05-17T12:51:23.838Z,45.88
2023-05-17T12:54:09.133Z,45.66
2023-05-17T12:56:54.524Z,45.28
2023-05-17T12:59:47.322Z,46.22
2023-05-17T13:02:32.593Z,44.43
2023-05-17T13:05:18.457Z,45.60
2023-05-17T13:08:20.072Z,45.84
2023-05-17T13:11:10.035Z,46.75
2023-05-17T13:13:55.287Z,47.70
2023-05-17T13:16:40.898Z,50.55
2023-05-17T13:19:26.609Z,47.82
2023-05-17T13:22:11.813Z,47.82
2023-05-17T13:24:56.946Z,45.31
2023-05-17T13:27:42.381Z,46.32
2023-05-17T13:30:27.767Z,46.34
2023-05-17T13:33:13.062Z,47.80
2023-05-17T13:35:58.564Z,48.93
2023-05-17T13:38:43.760Z,49.41
2023-05-17T13:41:29.289Z,48.51
2023-05-17T13:44:15.187Z,48.63
2023-05-17T13:47:00.559Z,48.07
2023-05-17T13:49:45.861Z,48.14
2023-05-17T13:52:31.233Z,48.13
2023-05-17T13:55:16.598Z,47.38
2023-05-17T13:58:01.624Z,48.08
2023-05-17T14:00:46.935Z,48.63
2023-05-17T14:03:32.448Z,47.94
2023-05-17T14:06:18.333Z,48.07
2023-05-17T14:09:03.736Z,48.62
2023-05-17T14:11:49.208Z,47.88
2023-05-17T14:14:34.610Z,48.85
2023-05-17T14:17:19.508Z,48.35
2023-05-17T14:20:05.680Z,48.93
2023-05-17T14:22:50.874Z,50.28
2023-05-17T14:25:37.559Z,50.27
2023-05-17T14:28:22.897Z,50.81
2023-05-17T14:31:09.296Z,50.90
2023-05-17T14:33:54.588Z,50.71
2023-05-17T14:36:40.158Z,50.94
2023-05-17T14:39:25.584Z,50.91
2023-05-17T14:42:11.014Z,50.26
2023-05-17T14:44:56.457Z,51.78
2023-05-17T14:47:41.654Z,51.06
2023-05-17T14:50:27.302Z,52.38
2023-05-17T14:53:12.904Z,52.02
2023-05-17T14:55:58.460Z,50.50
2023-05-17T14:58:43.609Z,51.25
2023-05-17T15:01:29.012Z,50.02
2023-05-17T15:04:14.441Z,50.53
2023-05-17T15:06:59.784Z,50.18
2023-05-17T15:09:45.036Z,48.56
2023-05-17T15:12:30.730Z,49.34
2023-05-17T15:15:15.913Z,49.79
2023-05-17T15:18:01.092Z,50.55
2023-05-17T15:20:46.424Z,51.00
2023-05-17T15:23:31.727Z,50.58
2023-05-17T15:26:17.122Z,51.27
2023-05-17T15:29:02.143Z,52.28
2023-05-17T15:31:47.461Z,51.08
2023-05-17T15:34:32.723Z,50.25
2023-05-17T15:37:17.563Z,50.95
2023-05-17T15:40:10.226Z,51.49
2023-05-17T15:42:55.477Z,50.22
2023-05-17T15:45:40.627Z,50.66
2023-05-17T15:48:25.882Z,49.51
2023-05-17T15:51:11.097Z,49.67
2023-05-17T15:53:56.512Z,49.52
2023-05-17T15:56:41.356Z,49.63
2023-05-17T15:59:26.130Z,48.85
2023-05-17T16:02:11.493Z,48.37
2023-05-17T16:04:56.775Z,48.93
2023-05-17T16:07:41.641Z,48.77
2023-05-17T16:10:27.166Z,48.98
2023-05-17T16:13:12.571Z,49.99
2023-05-17T16:15:58.536Z,51.30
2023-05-17T16:18:43.698Z,51.45
2023-05-17T16:21:29.354Z,50.90
2023-05-17T16:24:14.677Z,50.71
2023-05-17T16:27:00.141Z,51.60
2023-05-17T16:29:45.027Z,52.31
2023-05-17T16:32:30.525Z,52.54
2023-05-17T16:35:16.679Z,52.43
2023-05-17T16:38:01.618Z,52.94
2023-05-17T16:40:47.184Z,52.58
2023-05-17T16:43:32.403Z,52.41
2023-05-17T16:46:17.651Z,52.33
2023-05-17T16:49:02.992Z,51.82
2023-05-17T16:51:48.024Z,52.27
2023-05-17T16:54:34.703Z,51.23
2023-05-17T16:57:19.997Z,51.89
2023-05-17T17:00:06.025Z,51.99
2023-05-17T17:02:51.286Z,51.33
2023-05-17T17:05:36.736Z,51.46
2023-05-17T17:08:22.082Z,52.38
2023-05-17T17:11:07.060Z,52.42
2023-05-17T17:13:52.258Z,52.73
2023-05-17T17:16:38.248Z,52.73
2023-05-17T17:19:23.579Z,52.46
2023-05-17T17:22:08.927Z,52.76
2023-05-17T17:24:53.839Z,53.51
2023-05-17T17:27:39.232Z,53.36
2023-05-17T17:30:24.668Z,53.55
2023-05-17T17:33:09.988Z,54.21
2023-05-17T17:35:55.703Z,54.11
2023-05-17T17:38:40.829Z,54.50
2023-05-17T17:41:25.712Z,54.93
2023-05-17T17:44:11.055Z,54.56
2023-05-17T17:46:56.023Z,54.91
2023-05-17T17:49:41.358Z,55.08
2023-05-17T17:52:26.781Z,54.93
2023-05-17T17:55:12.101Z,54.44
2023-05-17T17:57:56.865Z,54.86
2023-05-17T18:00:41.736Z,54.96
2023-05-17T18:03:27.248Z,55.33
2023-05-17T18:06:12.694Z,55.35
2023-05-17T18:08:57.649Z,55.29
2023-05-17T18:11:42.980Z,55.98
2023-05-17T18:14:28.040Z,54.88
2023-05-17T18:17:13.424Z,55.02
2023-05-17T18:19:58.340Z,55.80
2023-05-17T18:22:43.877Z,55.68
2023-05-17T18:25:29.192Z,55.37
2023-05-17T18:28:14.597Z,56.04
2023-05-17T18:30:59.862Z,55.25
2023-05-17T18:33:45.753Z,54.83
2023-05-17T18:36:30.750Z,55.56
2023-05-17T18:39:16.276Z,55.62
2023-05-17T18:42:01.564Z,56.38
2023-05-17T18:44:47.252Z,57.49
2023-05-17T18:47:32.443Z,57.41
2023-05-17T18:50:17.769Z,57.42
2023-05-17T18:53:03.128Z,57.82
2023-05-17T18:55:48.510Z,57.98
2023-05-17T18:58:33.377Z,57.87
2023-05-17T19:01:18.612Z,57.73
2023-05-17T19:04:03.768Z,57.81
2023-05-17T19:06:49.028Z,58.07
2023-05-17T19:09:34.014Z,58.31
2023-05-17T19:12:19.222Z,58.75
2023-05-17T19:15:04.860Z,58.29
2023-05-17T19:17:50.267Z,59.43
2023-05-17T19:20:35.684Z,59.68
2023-05-17T19:23:20.918Z,59.47
2023-05-17T19:26:05.913Z,59.68
2023-05-17T19:28:50.757Z,60.09
2023-05-17T19:31:36.138Z,60.45
2023-05-17T19:34:21.618Z,60.72
2023-05-17T19:37:06.591Z,60.56
2023-05-17T19:39:52.100Z,60.69
2023-05-17T19:42:37.005Z,61.20
2023-05-17T19:45:22.369Z,61.93
2023-05-17T19:48:07.875Z,61.47
2023-05-17T19:50:54.964Z,61.67
2023-05-17T19:53:52.421Z,61.88
2023-05-17T19:56:38.329Z,62.32
2023-05-17T19:59:23.279Z,62.56
2023-05-17T20:02:08.173Z,62.36
2023-05-17T20:04:53.032Z,62.83
2023-05-17T20:07:37.905Z,63.24
2023-05-17T20:10:22.884Z,63.47
2023-05-17T20:13:07.774Z,63.82
2023-05-17T20:15:52.753Z,63.61
2023-05-17T20:18:42.273Z,63.43
2023-05-17T20:21:27.856Z,64.42
2023-05-17T20:24:13.096Z,65.20
2023-05-17T20:26:57.926Z,65.26
2023-05-17T20:29:43.345Z,65.23
2023-05-17T20:32:29.131Z,65.46
2023-05-17T20:35:14.188Z,65.37
2023-05-17T20:37:59.443Z,65.22
2023-05-17T20:40:44.839Z,65.55
2023-05-17T20:43:30.150Z,66.20
2023-05-17T20:46:16.172Z,66.37
2023-05-17T20:49:01.215Z,66.54
2023-05-17T20:51:46.833Z,66.90
2023-05-17T20:54:31.859Z,66.90
2023-05-17T20:57:16.973Z,67.56
2023-05-17T21:00:03.243Z,67.56
2023-05-17T21:02:48.714Z,67.83
2023-05-17T21:05:33.970Z,68.15
2023-05-17T21:08:19.337Z,68.49
2023-05-17T21:11:04.518Z,68.68
2023-05-17T21:13:50.046Z,68.42
2023-05-17T21:16:35.207Z,68.76
2023-05-17T21:19:20.670Z,69.00
2023-05-17T21:22:05.831Z,69.15
2023-05-17T21:24:52.180Z,69.05
2023-05-17T21:27:38.089Z,69.28
2023-05-17T21:30:23.875Z,69.45
2023-05-17T21:33:08.955Z,70.10
2023-05-17T21:35:54.094Z,70.32
2023-05-17T21:38:39.673Z,69.87
2023-05-17T21:41:24.850Z,70.18
2023-05-17T21:44:09.837Z,70.47
2023-05-17T21:46:56.882Z,70.70
2023-05-17T21:49:42.184Z,70.69
2023-05-17T21:52:27.219Z,70.89
2023-05-17T21:55:11.976Z,70.95
2023-05-17T21:57:57.049Z,71.16
2023-05-17T22:00:42.421Z,71.27
2023-05-17T22:03:27.570Z,71.85
2023-05-17T22:06:12.764Z,71.80
2023-05-17T22:08:58.024Z,72.32
2023-05-17T22:11:42.873Z,72.70
2023-05-17T22:14:28.487Z,72.63
2023-05-17T22:17:13.719Z,72.49
2023-05-17T22:20:01.308Z,72.42
2023-05-17T22:22:46.212Z,72.50
2023-05-17T22:25:31.091Z,72.44
2023-05-17T22:28:16.562Z,72.58
2023-05-17T22:31:02.396Z,73.00
2023-05-17T22:33:50.376Z,73.27
2023-05-17T22:36:35.384Z,73.27
2023-05-17T22:39:20.778Z,72.91
2023-05-17T22:42:07.338Z,72.91
2023-05-17T22:44:52.434Z,73.39
2023-05-17T22:47:38.172Z,73.94
2023-05-17T22:50:23.447Z,74.30
2023-05-17T22:53:09.080Z,74.78
2023-05-17T22:55:54.393Z,75.33
2023-05-17T22:58:39.488Z,76.08
2023-05-17T23:01:24.992Z,76.88
2023-05-17T23:04:10.238Z,77.78
2023-05-17T23:06:56.976Z,78.22
2023-05-17T23:09:42.501Z,78.55
2023-05-17T23:12:27.301Z,78.18
2023-05-17T23:15:12.858Z,78.35
2023-05-17T23:17:58.267Z,79.19
2023-05-17T23:20:44.305Z,79.63
2023-05-17T23:23:29.866Z,80.01
2023-05-17T23:26:14.794Z,80.11
2023-05-17T23:28:59.913Z,80.24
2023-05-17T23:31:45.197Z,80.70
2023-05-17T23:34:30.672Z,80.93
2023-05-17T23:37:16.861Z,81.56
2023-05-17T23:40:03.218Z,82.06
2023-05-17T23:42:48.587Z,82.08
2023-05-17T23:45:33.490Z,81.80
2023-05-17T23:48:18.957Z,82.43
2023-05-17T23:51:04.659Z,82.34
2023-05-17T23:53:49.827Z,82.53
2023-05-17T23:56:34.912Z,83.65
2023-05-17T23:59:20.411Z,83.70
